sensor_id;sensor_type;location;lat;lon;timestamp;P1;durP1;ratioP1;P2;durP2;ratioP2
1613;SDS011;800;48.824;9.346;2023-11-22T00:00:09;11.30;;;8.03;;
1613;SDS011;800;48.824;9.346;2023-11-22T00:02:35;4.30;;;3.90;;
1613;SDS011;800;48.824;9.346;2023-11-22T00:05:02;4.20;;;2.80;;
1613;SDS011;800;48.824;9.346;2023-11-22T00:07:28;3.23;;;2.80;;
1613;SDS011;800;48.824;9.346;2023-11-22T00:09:54;2.23;;;1.90;;
1613;SDS011;800;48.824;9.346;2023-11-22T00:12:20;2.60;;;2.00;;
1613;SDS011;800;48.824;9.346;2023-11-22T00:14:45;2.83;;;2.63;;
1613;SDS011;800;48.824;9.346;2023-11-22T00:17:12;2.93;;;2.60;;
1613;SDS011;800;48.824;9.346;2023-11-22T00:19:37;2.67;;;2.47;;
1613;SDS011;800;48.824;9.346;2023-11-22T00:22:03;3.00;;;2.47;;
1613;SDS011;800;48.824;9.346;2023-11-22T00:24:36;2.80;;;2.60;;
1613;SDS011;800;48.824;9.346;2023-11-22T00:27:02;3.40;;;3.10;;
1613;SDS011;800;48.824;9.346;2023-11-22T00:29:28;3.63;;;3.33;;
1613;SDS011;800;48.824;9.346;2023-11-22T00:31:53;3.83;;;3.07;;
1613;SDS011;800;48.824;9.346;2023-11-22T00:34:19;4.27;;;2.97;;
1613;SDS011;800;48.824;9.346;2023-11-22T00:36:44;3.40;;;3.10;;
1613;SDS011;800;48.824;9.346;2023-11-22T00:39:10;3.20;;;2.90;;
1613;SDS011;800;48.824;9.346;2023-11-22T00:41:38;3.73;;;3.37;;
1613;SDS011;800;48.824;9.346;2023-11-22T00:44:04;3.23;;;2.93;;
1613;SDS011;800;48.824;9.346;2023-11-22T00:46:31;3.33;;;2.40;;
1613;SDS011;800;48.824;9.346;2023-11-22T00:48:57;3.17;;;2.90;;
1613;SDS011;800;48.824;9.346;2023-11-22T00:51:22;3.10;;;2.90;;
1613;SDS011;800;48.824;9.346;2023-11-22T00:53:48;3.40;;;3.10;;
1613;SDS011;800;48.824;9.346;2023-11-22T00:56:14;3.33;;;3.00;;
1613;SDS011;800;48.824;9.346;2023-11-22T00:58:40;3.60;;;3.30;;
1613;SDS011;800;48.824;9.346;2023-11-22T01:01:06;3.80;;;3.50;;
1613;SDS011;800;48.824;9.346;2023-11-22T01:03:31;3.40;;;2.90;;
1613;SDS011;800;48.824;9.346;2023-11-22T01:05:57;4.10;;;3.60;;
1613;SDS011;800;48.824;9.346;2023-11-22T01:08:22;4.00;;;3.47;;
1613;SDS011;800;48.824;9.346;2023-11-22T01:10:48;3.80;;;3.50;;
1613;SDS011;800;48.824;9.346;2023-11-22T01:13:14;3.23;;;2.97;;
1613;SDS011;800;48.824;9.346;2023-11-22T01:15:40;3.20;;;3.00;;
1613;SDS011;800;48.824;9.346;2023-11-22T01:18:06;4.17;;;3.77;;
1613;SDS011;800;48.824;9.346;2023-11-22T01:20:32;4.23;;;3.83;;
1613;SDS011;800;48.824;9.346;2023-11-22T01:22:58;3.80;;;3.50;;
1613;SDS011;800;48.824;9.346;2023-11-22T01:25:24;3.80;;;3.50;;
1613;SDS011;800;48.824;9.346;2023-11-22T01:27:49;4.83;;;3.77;;
1613;SDS011;800;48.824;9.346;2023-11-22T01:30:15;3.90;;;3.60;;
1613;SDS011;800;48.824;9.346;2023-11-22T01:32:40;3.83;;;3.50;;
1613;SDS011;800;48.824;9.346;2023-11-22T01:35:06;4.30;;;3.90;;
1613;SDS011;800;48.824;9.346;2023-11-22T01:37:32;3.60;;;3.30;;
1613;SDS011;800;48.824;9.346;2023-11-22T01:39:58;3.87;;;3.40;;
1613;SDS011;800;48.824;9.346;2023-11-22T01:42:23;4.30;;;3.90;;
1613;SDS011;800;48.824;9.346;2023-11-22T01:44:50;4.07;;;3.67;;
1613;SDS011;800;48.824;9.346;2023-11-22T01:47:17;3.80;;;3.13;;
1613;SDS011;800;48.824;9.346;2023-11-22T01:49:44;4.40;;;3.77;;
1613;SDS011;800;48.824;9.346;2023-11-22T01:52:11;5.47;;;3.57;;
1613;SDS011;800;48.824;9.346;2023-11-22T01:54:37;4.00;;;3.43;;
1613;SDS011;800;48.824;9.346;2023-11-22T01:57:03;3.53;;;3.23;;
1613;SDS011;800;48.824;9.346;2023-11-22T01:59:33;3.60;;;3.30;;
1613;SDS011;800;48.824;9.346;2023-11-22T02:01:58;3.73;;;3.23;;
1613;SDS011;800;48.824;9.346;2023-11-22T02:04:24;3.30;;;3.00;;
1613;SDS011;800;48.824;9.346;2023-11-22T02:06:50;4.43;;;4.03;;
1613;SDS011;800;48.824;9.346;2023-11-22T02:09:16;3.53;;;3.23;;
1613;SDS011;800;48.824;9.346;2023-11-22T02:11:43;4.33;;;3.23;;
1613;SDS011;800;48.824;9.346;2023-11-22T02:14:10;3.57;;;3.27;;
1613;SDS011;800;48.824;9.346;2023-11-22T02:16:36;3.73;;;2.80;;
1613;SDS011;800;48.824;9.346;2023-11-22T02:19:04;3.93;;;3.53;;
1613;SDS011;800;48.824;9.346;2023-11-22T02:21:32;3.67;;;3.37;;
1613;SDS011;800;48.824;9.346;2023-11-22T02:23:58;7.20;;;3.93;;
1613;SDS011;800;48.824;9.346;2023-11-22T02:26:23;3.77;;;3.20;;
1613;SDS011;800;48.824;9.346;2023-11-22T02:28:50;4.03;;;3.63;;
1613;SDS011;800;48.824;9.346;2023-11-22T02:31:15;3.70;;;3.40;;
1613;SDS011;800;48.824;9.346;2023-11-22T02:33:41;3.50;;;3.20;;
1613;SDS011;800;48.824;9.346;2023-11-22T02:36:07;3.70;;;3.23;;
1613;SDS011;800;48.824;9.346;2023-11-22T02:38:33;4.17;;;3.77;;
1613;SDS011;800;48.824;9.346;2023-11-22T02:41:00;4.70;;;3.10;;
1613;SDS011;800;48.824;9.346;2023-11-22T02:43:26;3.70;;;3.30;;
1613;SDS011;800;48.824;9.346;2023-11-22T02:45:51;4.20;;;3.80;;
1613;SDS011;800;48.824;9.346;2023-11-22T02:48:18;3.77;;;3.37;;
1613;SDS011;800;48.824;9.346;2023-11-22T02:50:44;3.80;;;3.40;;
1613;SDS011;800;48.824;9.346;2023-11-22T02:53:09;3.53;;;2.60;;
1613;SDS011;800;48.824;9.346;2023-11-22T02:55:35;3.87;;;3.47;;
1613;SDS011;800;48.824;9.346;2023-11-22T02:58:01;3.97;;;3.57;;
1613;SDS011;800;48.824;9.346;2023-11-22T03:00:27;3.87;;;3.47;;
1613;SDS011;800;48.824;9.346;2023-11-22T03:02:54;3.30;;;3.00;;
1613;SDS011;800;48.824;9.346;2023-11-22T03:05:21;5.87;;;3.80;;
1613;SDS011;800;48.824;9.346;2023-11-22T03:07:47;3.83;;;3.43;;
1613;SDS011;800;48.824;9.346;2023-11-22T03:10:13;4.17;;;3.80;;
1613;SDS011;800;48.824;9.346;2023-11-22T03:12:38;3.43;;;3.13;;
1613;SDS011;800;48.824;9.346;2023-11-22T03:15:04;3.73;;;3.37;;
1613;SDS011;800;48.824;9.346;2023-11-22T03:17:30;4.43;;;4.03;;
1613;SDS011;800;48.824;9.346;2023-11-22T03:19:57;4.33;;;3.73;;
1613;SDS011;800;48.824;9.346;2023-11-22T03:22:24;4.00;;;3.60;;
1613;SDS011;800;48.824;9.346;2023-11-22T03:24:50;3.37;;;3.00;;
1613;SDS011;800;48.824;9.346;2023-11-22T03:27:16;3.90;;;3.10;;
1613;SDS011;800;48.824;9.346;2023-11-22T03:29:41;4.43;;;3.50;;
1613;SDS011;800;48.824;9.346;2023-11-22T03:32:07;3.80;;;3.40;;
1613;SDS011;800;48.824;9.346;2023-11-22T03:34:33;6.27;;;3.47;;
1613;SDS011;800;48.824;9.346;2023-11-22T03:36:58;5.07;;;3.30;;
1613;SDS011;800;48.824;9.346;2023-11-22T03:39:24;4.33;;;3.43;;
1613;SDS011;800;48.824;9.346;2023-11-22T03:41:49;3.37;;;3.07;;
1613;SDS011;800;48.824;9.346;2023-11-22T03:44:15;4.20;;;3.77;;
1613;SDS011;800;48.824;9.346;2023-11-22T03:46:41;3.67;;;3.17;;
1613;SDS011;800;48.824;9.346;2023-11-22T03:49:07;4.60;;;3.60;;
1613;SDS011;800;48.824;9.346;2023-11-22T03:51:33;5.50;;;4.20;;
1613;SDS011;800;48.824;9.346;2023-11-22T03:54:00;4.00;;;3.60;;
1613;SDS011;800;48.824;9.346;2023-11-22T03:56:27;4.10;;;3.53;;
1613;SDS011;800;48.824;9.346;2023-11-22T03:58:53;4.83;;;3.60;;
1613;SDS011;800;48.824;9.346;2023-11-22T04:01:19;3.37;;;2.93;;
1613;SDS011;800;48.824;9.346;2023-11-22T04:03:45;5.13;;;4.40;;
1613;SDS011;800;48.824;9.346;2023-11-22T04:06:13;5.03;;;3.90;;
1613;SDS011;800;48.824;9.346;2023-11-22T04:08:40;3.70;;;3.20;;
1613;SDS011;800;48.824;9.346;2023-11-22T04:11:08;4.40;;;3.30;;
1613;SDS011;800;48.824;9.346;2023-11-22T04:13:35;4.43;;;4.03;;
1613;SDS011;800;48.824;9.346;2023-11-22T04:16:00;3.50;;;3.20;;
1613;SDS011;800;48.824;9.346;2023-11-22T04:18:26;5.37;;;4.00;;
1613;SDS011;800;48.824;9.346;2023-11-22T04:20:52;4.00;;;3.70;;
1613;SDS011;800;48.824;9.346;2023-11-22T04:23:17;4.67;;;3.93;;
1613;SDS011;800;48.824;9.346;2023-11-22T04:25:43;5.93;;;4.40;;
1613;SDS011;800;48.824;9.346;2023-11-22T04:28:09;4.50;;;4.10;;
1613;SDS011;800;48.824;9.346;2023-11-22T04:30:35;3.83;;;3.53;;
1613;SDS011;800;48.824;9.346;2023-11-22T04:33:00;5.20;;;3.97;;
1613;SDS011;800;48.824;9.346;2023-11-22T04:35:26;5.63;;;4.30;;
1613;SDS011;800;48.824;9.346;2023-11-22T04:37:52;5.60;;;4.80;;
1613;SDS011;800;48.824;9.346;2023-11-22T04:40:20;4.90;;;3.83;;
1613;SDS011;800;48.824;9.346;2023-11-22T04:42:45;4.60;;;4.20;;
1613;SDS011;800;48.824;9.346;2023-11-22T04:45:12;5.00;;;4.10;;
1613;SDS011;800;48.824;9.346;2023-11-22T04:47:38;5.00;;;4.23;;
1613;SDS011;800;48.824;9.346;2023-11-22T04:50:03;3.63;;;3.33;;
1613;SDS011;800;48.824;9.346;2023-11-22T04:52:29;4.20;;;3.80;;
1613;SDS011;800;48.824;9.346;2023-11-22T04:54:56;3.53;;;3.20;;
1613;SDS011;800;48.824;9.346;2023-11-22T04:57:21;4.60;;;4.20;;
1613;SDS011;800;48.824;9.346;2023-11-22T04:59:47;4.77;;;4.37;;
1613;SDS011;800;48.824;9.346;2023-11-22T05:02:12;5.90;;;3.93;;
1613;SDS011;800;48.824;9.346;2023-11-22T05:04:38;4.90;;;4.50;;
1613;SDS011;800;48.824;9.346;2023-11-22T05:07:03;4.67;;;3.47;;
1613;SDS011;800;48.824;9.346;2023-11-22T05:09:29;5.10;;;4.23;;
1613;SDS011;800;48.824;9.346;2023-11-22T05:11:54;7.17;;;3.87;;
1613;SDS011;800;48.824;9.346;2023-11-22T05:14:20;5.20;;;3.87;;
1613;SDS011;800;48.824;9.346;2023-11-22T05:16:46;4.00;;;3.70;;
1613;SDS011;800;48.824;9.346;2023-11-22T05:19:11;4.43;;;4.03;;
1613;SDS011;800;48.824;9.346;2023-11-22T05:21:37;5.53;;;3.87;;
1613;SDS011;800;48.824;9.346;2023-11-22T05:24:02;3.70;;;3.40;;
1613;SDS011;800;48.824;9.346;2023-11-22T05:26:28;4.13;;;3.60;;
1613;SDS011;800;48.824;9.346;2023-11-22T05:28:54;4.97;;;4.13;;
1613;SDS011;800;48.824;9.346;2023-11-22T05:31:20;4.10;;;3.70;;
1613;SDS011;800;48.824;9.346;2023-11-22T05:33:46;3.67;;;2.87;;
1613;SDS011;800;48.824;9.346;2023-11-22T05:36:12;5.03;;;4.03;;
1613;SDS011;800;48.824;9.346;2023-11-22T05:38:37;4.03;;;3.63;;
1613;SDS011;800;48.824;9.346;2023-11-22T05:41:03;6.00;;;3.87;;
1613;SDS011;800;48.824;9.346;2023-11-22T05:43:28;5.07;;;3.70;;
1613;SDS011;800;48.824;9.346;2023-11-22T05:45:54;5.17;;;3.83;;
1613;SDS011;800;48.824;9.346;2023-11-22T05:48:20;4.40;;;3.80;;
1613;SDS011;800;48.824;9.346;2023-11-22T05:50:46;5.13;;;4.17;;
1613;SDS011;800;48.824;9.346;2023-11-22T05:53:12;3.97;;;3.67;;
1613;SDS011;800;48.824;9.346;2023-11-22T05:55:44;4.07;;;3.63;;
1613;SDS011;800;48.824;9.346;2023-11-22T05:58:13;4.37;;;3.70;;
1613;SDS011;800;48.824;9.346;2023-11-22T06:00:45;4.77;;;4.33;;
1613;SDS011;800;48.824;9.346;2023-11-22T06:03:11;5.20;;;4.07;;
1613;SDS011;800;48.824;9.346;2023-11-22T06:05:38;5.70;;;4.50;;
1613;SDS011;800;48.824;9.346;2023-11-22T06:08:04;5.37;;;4.47;;
1613;SDS011;800;48.824;9.346;2023-11-22T06:10:29;4.40;;;3.90;;
1613;SDS011;800;48.824;9.346;2023-11-22T06:12:55;5.10;;;4.20;;
1613;SDS011;800;48.824;9.346;2023-11-22T06:15:21;4.70;;;4.30;;
1613;SDS011;800;48.824;9.346;2023-11-22T06:17:47;5.00;;;4.40;;
1613;SDS011;800;48.824;9.346;2023-11-22T06:20:16;5.77;;;3.67;;
1613;SDS011;800;48.824;9.346;2023-11-22T06:22:42;10.00;;;4.27;;
1613;SDS011;800;48.824;9.346;2023-11-22T06:25:11;4.20;;;3.80;;
1613;SDS011;800;48.824;9.346;2023-11-22T06:27:37;4.57;;;3.60;;
1613;SDS011;800;48.824;9.346;2023-11-22T06:30:03;5.60;;;4.77;;
1613;SDS011;800;48.824;9.346;2023-11-22T06:32:31;4.77;;;4.27;;
1613;SDS011;800;48.824;9.346;2023-11-22T06:34:56;4.67;;;4.27;;
1613;SDS011;800;48.824;9.346;2023-11-22T06:37:22;4.47;;;3.73;;
1613;SDS011;800;48.824;9.346;2023-11-22T06:39:48;6.33;;;4.40;;
1613;SDS011;800;48.824;9.346;2023-11-22T06:42:13;4.80;;;4.30;;
1613;SDS011;800;48.824;9.346;2023-11-22T06:44:39;4.93;;;4.47;;
1613;SDS011;800;48.824;9.346;2023-11-22T06:47:07;5.23;;;4.30;;
1613;SDS011;800;48.824;9.346;2023-11-22T06:49:33;4.33;;;3.93;;
1613;SDS011;800;48.824;9.346;2023-11-22T06:51:59;4.20;;;3.80;;
1613;SDS011;800;48.824;9.346;2023-11-22T06:54:24;4.03;;;3.63;;
1613;SDS011;800;48.824;9.346;2023-11-22T06:56:50;4.40;;;3.90;;
1613;SDS011;800;48.824;9.346;2023-11-22T06:59:16;4.20;;;3.80;;
1613;SDS011;800;48.824;9.346;2023-11-22T07:01:42;3.80;;;3.40;;
1613;SDS011;800;48.824;9.346;2023-11-22T07:04:08;3.60;;;3.30;;
1613;SDS011;800;48.824;9.346;2023-11-22T07:06:33;4.20;;;3.80;;
1613;SDS011;800;48.824;9.346;2023-11-22T07:09:01;3.37;;;3.07;;
1613;SDS011;800;48.824;9.346;2023-11-22T07:11:26;3.10;;;2.90;;
1613;SDS011;800;48.824;9.346;2023-11-22T07:13:55;3.10;;;2.80;;
1613;SDS011;800;48.824;9.346;2023-11-22T07:16:22;3.30;;;3.00;;
1613;SDS011;800;48.824;9.346;2023-11-22T07:18:49;4.13;;;3.40;;
1613;SDS011;800;48.824;9.346;2023-11-22T07:21:15;3.27;;;2.80;;
1613;SDS011;800;48.824;9.346;2023-11-22T07:23:41;3.17;;;2.70;;
1613;SDS011;800;48.824;9.346;2023-11-22T07:26:07;3.00;;;2.80;;
1613;SDS011;800;48.824;9.346;2023-11-22T07:28:33;2.57;;;2.37;;
1613;SDS011;800;48.824;9.346;2023-11-22T07:31:00;3.93;;;2.97;;
1613;SDS011;800;48.824;9.346;2023-11-22T07:33:27;3.63;;;2.87;;
1613;SDS011;800;48.824;9.346;2023-11-22T07:35:52;3.43;;;3.10;;
1613;SDS011;800;48.824;9.346;2023-11-22T07:38:18;4.10;;;2.80;;
1613;SDS011;800;48.824;9.346;2023-11-22T07:40:44;3.40;;;3.10;;
1613;SDS011;800;48.824;9.346;2023-11-22T07:43:10;3.30;;;2.70;;
1613;SDS011;800;48.824;9.346;2023-11-22T07:45:35;3.50;;;3.20;;
1613;SDS011;800;48.824;9.346;2023-11-22T07:48:02;3.20;;;2.90;;
1613;SDS011;800;48.824;9.346;2023-11-22T07:50:29;3.77;;;3.30;;
1613;SDS011;800;48.824;9.346;2023-11-22T07:52:55;6.33;;;3.40;;
1613;SDS011;800;48.824;9.346;2023-11-22T07:55:21;3.70;;;3.30;;
1613;SDS011;800;48.824;9.346;2023-11-22T07:57:48;3.10;;;2.80;;
1613;SDS011;800;48.824;9.346;2023-11-22T08:00:15;4.90;;;3.23;;
1613;SDS011;800;48.824;9.346;2023-11-22T08:02:44;3.90;;;3.50;;
1613;SDS011;800;48.824;9.346;2023-11-22T08:05:10;4.20;;;3.30;;
1613;SDS011;800;48.824;9.346;2023-11-22T08:07:37;4.40;;;3.80;;
1613;SDS011;800;48.824;9.346;2023-11-22T08:10:05;9.50;;;3.60;;
1613;SDS011;800;48.824;9.346;2023-11-22T08:12:42;4.43;;;4.00;;
1613;SDS011;800;48.824;9.346;2023-11-22T08:15:09;4.37;;;3.97;;
1613;SDS011;800;48.824;9.346;2023-11-22T08:17:38;5.33;;;4.23;;
1613;SDS011;800;48.824;9.346;2023-11-22T08:20:04;3.83;;;3.23;;
1613;SDS011;800;48.824;9.346;2023-11-22T08:22:31;11.00;;;3.67;;
1613;SDS011;800;48.824;9.346;2023-11-22T08:25:01;4.17;;;3.50;;
1613;SDS011;800;48.824;9.346;2023-11-22T08:27:28;4.40;;;3.63;;
1613;SDS011;800;48.824;9.346;2023-11-22T08:29:53;5.07;;;3.73;;
1613;SDS011;800;48.824;9.346;2023-11-22T08:32:19;5.20;;;4.10;;
1613;SDS011;800;48.824;9.346;2023-11-22T08:34:48;3.73;;;3.33;;
1613;SDS011;800;48.824;9.346;2023-11-22T08:37:14;6.47;;;3.50;;
1613;SDS011;800;48.824;9.346;2023-11-22T08:39:40;6.80;;;4.30;;
1613;SDS011;800;48.824;9.346;2023-11-22T08:42:06;4.50;;;3.60;;
1613;SDS011;800;48.824;9.346;2023-11-22T08:44:34;8.57;;;3.10;;
1613;SDS011;800;48.824;9.346;2023-11-22T08:47:01;7.83;;;4.00;;
1613;SDS011;800;48.824;9.346;2023-11-22T08:49:28;4.40;;;3.90;;
1613;SDS011;800;48.824;9.346;2023-11-22T08:51:54;4.63;;;4.07;;
1613;SDS011;800;48.824;9.346;2023-11-22T08:54:19;6.10;;;4.17;;
1613;SDS011;800;48.824;9.346;2023-11-22T08:56:45;5.60;;;3.93;;
1613;SDS011;800;48.824;9.346;2023-11-22T08:59:12;4.77;;;3.43;;
1613;SDS011;800;48.824;9.346;2023-11-22T09:01:37;6.30;;;3.40;;
1613;SDS011;800;48.824;9.346;2023-11-22T09:04:03;5.50;;;3.60;;
1613;SDS011;800;48.824;9.346;2023-11-22T09:06:29;11.07;;;4.23;;
1613;SDS011;800;48.824;9.346;2023-11-22T09:08:55;6.93;;;4.87;;
1613;SDS011;800;48.824;9.346;2023-11-22T09:11:21;4.30;;;3.90;;
1613;SDS011;800;48.824;9.346;2023-11-22T09:13:47;4.07;;;3.47;;
1613;SDS011;800;48.824;9.346;2023-11-22T09:16:15;5.53;;;3.90;;
1613;SDS011;800;48.824;9.346;2023-11-22T09:18:41;5.10;;;4.00;;
1613;SDS011;800;48.824;9.346;2023-11-22T09:21:08;4.83;;;3.93;;
1613;SDS011;800;48.824;9.346;2023-11-22T09:23:34;6.33;;;4.00;;
1613;SDS011;800;48.824;9.346;2023-11-22T09:26:02;4.40;;;3.90;;
1613;SDS011;800;48.824;9.346;2023-11-22T09:28:28;5.20;;;4.10;;
1613;SDS011;800;48.824;9.346;2023-11-22T09:30:53;4.63;;;3.60;;
1613;SDS011;800;48.824;9.346;2023-11-22T09:33:26;7.33;;;3.80;;
1613;SDS011;800;48.824;9.346;2023-11-22T09:35:51;6.67;;;4.80;;
1613;SDS011;800;48.824;9.346;2023-11-22T09:38:17;5.53;;;3.93;;
1613;SDS011;800;48.824;9.346;2023-11-22T09:40:43;7.13;;;5.47;;
1613;SDS011;800;48.824;9.346;2023-11-22T09:43:14;4.40;;;4.00;;
1613;SDS011;800;48.824;9.346;2023-11-22T09:45:45;4.63;;;4.13;;
1613;SDS011;800;48.824;9.346;2023-11-22T09:48:17;4.20;;;3.57;;
1613;SDS011;800;48.824;9.346;2023-11-22T09:56:25;5.80;;;4.20;;
1613;SDS011;800;48.824;9.346;2023-11-22T09:58:53;5.30;;;4.27;;
1613;SDS011;800;48.824;9.346;2023-11-22T10:01:24;6.00;;;4.37;;
1613;SDS011;800;48.824;9.346;2023-11-22T10:03:49;6.60;;;4.23;;
1613;SDS011;800;48.824;9.346;2023-11-22T10:06:15;4.87;;;4.03;;
1613;SDS011;800;48.824;9.346;2023-11-22T10:08:42;4.87;;;3.80;;
1613;SDS011;800;48.824;9.346;2023-11-22T10:11:08;3.97;;;3.47;;
1613;SDS011;800;48.824;9.346;2023-11-22T10:13:34;6.93;;;4.20;;
1613;SDS011;800;48.824;9.346;2023-11-22T10:16:09;6.43;;;4.67;;
1613;SDS011;800;48.824;9.346;2023-11-22T10:18:40;6.07;;;4.03;;
1613;SDS011;800;48.824;9.346;2023-11-22T10:21:18;4.83;;;4.00;;
1613;SDS011;800;48.824;9.346;2023-11-22T10:23:46;5.20;;;4.43;;
1613;SDS011;800;48.824;9.346;2023-11-22T10:26:16;6.03;;;5.00;;
1613;SDS011;800;48.824;9.346;2023-11-22T10:28:42;7.20;;;4.60;;
1613;SDS011;800;48.824;9.346;2023-11-22T10:31:10;6.50;;;5.50;;
1613;SDS011;800;48.824;9.346;2023-11-22T10:33:40;5.40;;;4.20;;
1613;SDS011;800;48.824;9.346;2023-11-22T10:36:09;4.83;;;4.10;;
1613;SDS011;800;48.824;9.346;2023-11-22T10:38:35;4.33;;;3.93;;
1613;SDS011;800;48.824;9.346;2023-11-22T10:41:04;7.67;;;5.20;;
1613;SDS011;800;48.824;9.346;2023-11-22T10:43:30;5.23;;;4.37;;
1613;SDS011;800;48.824;9.346;2023-11-22T10:45:59;5.10;;;4.60;;
1613;SDS011;800;48.824;9.346;2023-11-22T10:48:27;5.60;;;4.90;;
1613;SDS011;800;48.824;9.346;2023-11-22T10:50:54;5.80;;;5.20;;
1613;SDS011;800;48.824;9.346;2023-11-22T10:53:22;5.23;;;4.73;;
1613;SDS011;800;48.824;9.346;2023-11-22T10:55:59;5.83;;;4.07;;
1613;SDS011;800;48.824;9.346;2023-11-22T10:58:47;8.73;;;5.00;;
1613;SDS011;800;48.824;9.346;2023-11-22T11:01:13;5.40;;;4.90;;
1613;SDS011;800;48.824;9.346;2023-11-22T11:04:03;5.90;;;4.60;;
1613;SDS011;800;48.824;9.346;2023-11-22T11:06:35;5.03;;;4.53;;
1613;SDS011;800;48.824;9.346;2023-11-22T11:09:02;5.20;;;4.70;;
1613;SDS011;800;48.824;9.346;2023-11-22T11:11:34;5.50;;;5.00;;
1613;SDS011;800;48.824;9.346;2023-11-22T11:14:01;13.93;;;7.80;;
1613;SDS011;800;48.824;9.346;2023-11-22T11:16:29;7.70;;;6.00;;
1613;SDS011;800;48.824;9.346;2023-11-22T11:18:56;7.17;;;5.47;;
1613;SDS011;800;48.824;9.346;2023-11-22T11:21:23;7.40;;;5.77;;
1613;SDS011;800;48.824;9.346;2023-11-22T11:23:51;7.27;;;6.27;;
1613;SDS011;800;48.824;9.346;2023-11-22T11:26:19;6.33;;;5.30;;
1613;SDS011;800;48.824;9.346;2023-11-22T11:28:47;6.80;;;6.13;;
1613;SDS011;800;48.824;9.346;2023-11-22T11:31:14;7.00;;;5.37;;
1613;SDS011;800;48.824;9.346;2023-11-22T11:36:25;5.40;;;4.90;;
1613;SDS011;800;48.824;9.346;2023-11-22T11:38:52;5.27;;;4.30;;
1613;SDS011;800;48.824;9.346;2023-11-22T11:41:22;7.43;;;5.00;;
1613;SDS011;800;48.824;9.346;2023-11-22T11:43:53;5.97;;;4.67;;
1613;SDS011;800;48.824;9.346;2023-11-22T11:46:21;5.73;;;5.03;;
1613;SDS011;800;48.824;9.346;2023-11-22T11:48:51;5.87;;;4.60;;
1613;SDS011;800;48.824;9.346;2023-11-22T11:51:18;5.00;;;4.60;;
1613;SDS011;800;48.824;9.346;2023-11-22T11:53:45;4.47;;;3.90;;
1613;SDS011;800;48.824;9.346;2023-11-22T11:56:11;5.23;;;4.17;;
1613;SDS011;800;48.824;9.346;2023-11-22T11:58:37;5.63;;;5.00;;
1613;SDS011;800;48.824;9.346;2023-11-22T12:01:06;4.93;;;4.40;;
1613;SDS011;800;48.824;9.346;2023-11-22T12:03:32;5.73;;;5.13;;
1613;SDS011;800;48.824;9.346;2023-11-22T12:05:58;4.97;;;4.47;;
1613;SDS011;800;48.824;9.346;2023-11-22T12:08:25;5.90;;;4.83;;
1613;SDS011;800;48.824;9.346;2023-11-22T12:10:55;6.07;;;5.47;;
1613;SDS011;800;48.824;9.346;2023-11-22T12:13:23;4.93;;;4.43;;
1613;SDS011;800;48.824;9.346;2023-11-22T12:15:50;5.90;;;5.30;;
1613;SDS011;800;48.824;9.346;2023-11-22T12:18:18;5.87;;;5.27;;
1613;SDS011;800;48.824;9.346;2023-11-22T12:20:53;5.07;;;4.57;;
1613;SDS011;800;48.824;9.346;2023-11-22T12:23:23;7.00;;;5.03;;
1613;SDS011;800;48.824;9.346;2023-11-22T12:25:53;6.20;;;4.90;;
1613;SDS011;800;48.824;9.346;2023-11-22T12:28:22;6.73;;;4.20;;
1613;SDS011;800;48.824;9.346;2023-11-22T12:31:07;5.17;;;4.53;;
1613;SDS011;800;48.824;9.346;2023-11-22T12:33:40;7.73;;;4.67;;
1613;SDS011;800;48.824;9.346;2023-11-22T12:36:07;4.47;;;3.97;;
1613;SDS011;800;48.824;9.346;2023-11-22T12:38:34;4.80;;;4.40;;
1613;SDS011;800;48.824;9.346;2023-11-22T12:41:00;4.30;;;3.80;;
1613;SDS011;800;48.824;9.346;2023-11-22T12:43:28;4.83;;;4.30;;
1613;SDS011;800;48.824;9.346;2023-11-22T12:46:02;4.57;;;3.87;;
1613;SDS011;800;48.824;9.346;2023-11-22T12:48:29;5.50;;;3.90;;
1613;SDS011;800;48.824;9.346;2023-11-22T12:50:55;3.90;;;3.50;;
1613;SDS011;800;48.824;9.346;2023-11-22T12:53:22;5.10;;;4.20;;
1613;SDS011;800;48.824;9.346;2023-11-22T12:55:51;4.97;;;4.47;;
1613;SDS011;800;48.824;9.346;2023-11-22T12:58:17;4.80;;;3.97;;
1613;SDS011;800;48.824;9.346;2023-11-22T13:00:45;5.00;;;4.23;;
1613;SDS011;800;48.824;9.346;2023-11-22T13:03:11;5.17;;;4.67;;
1613;SDS011;800;48.824;9.346;2023-11-22T13:05:38;5.63;;;4.33;;
1613;SDS011;800;48.824;9.346;2023-11-22T13:08:04;6.13;;;4.60;;
1613;SDS011;800;48.824;9.346;2023-11-22T13:10:30;5.10;;;4.20;;
1613;SDS011;800;48.824;9.346;2023-11-22T13:12:56;5.17;;;4.27;;
1613;SDS011;800;48.824;9.346;2023-11-22T13:15:23;6.23;;;4.50;;
1613;SDS011;800;48.824;9.346;2023-11-22T13:17:50;4.90;;;4.40;;
1613;SDS011;800;48.824;9.346;2023-11-22T13:20:23;5.90;;;4.90;;
1613;SDS011;800;48.824;9.346;2023-11-22T13:22:51;4.30;;;3.90;;
1613;SDS011;800;48.824;9.346;2023-11-22T13:25:17;6.80;;;4.13;;
1613;SDS011;800;48.824;9.346;2023-11-22T13:27:44;5.23;;;4.27;;
1613;SDS011;800;48.824;9.346;2023-11-22T13:30:11;5.67;;;4.27;;
1613;SDS011;800;48.824;9.346;2023-11-22T13:32:37;8.27;;;4.30;;
1613;SDS011;800;48.824;9.346;2023-11-22T13:35:04;5.20;;;4.67;;
1613;SDS011;800;48.824;9.346;2023-11-22T13:37:37;4.13;;;3.80;;
1613;SDS011;800;48.824;9.346;2023-11-22T13:40:06;6.90;;;4.83;;
1613;SDS011;800;48.824;9.346;2023-11-22T13:42:36;4.30;;;3.90;;
1613;SDS011;800;48.824;9.346;2023-11-22T13:45:02;7.20;;;4.50;;
1613;SDS011;800;48.824;9.346;2023-11-22T13:47:28;5.10;;;4.60;;
1613;SDS011;800;48.824;9.346;2023-11-22T13:49:54;6.60;;;5.20;;
1613;SDS011;800;48.824;9.346;2023-11-22T13:52:19;5.53;;;5.03;;
1613;SDS011;800;48.824;9.346;2023-11-22T13:54:45;5.10;;;4.50;;
1613;SDS011;800;48.824;9.346;2023-11-22T13:57:11;6.80;;;5.10;;
1613;SDS011;800;48.824;9.346;2023-11-22T13:59:36;5.80;;;4.23;;
1613;SDS011;800;48.824;9.346;2023-11-22T14:02:03;5.40;;;4.60;;
1613;SDS011;800;48.824;9.346;2023-11-22T14:04:28;6.37;;;4.60;;
1613;SDS011;800;48.824;9.346;2023-11-22T14:06:54;5.13;;;4.23;;
1613;SDS011;800;48.824;9.346;2023-11-22T14:09:20;5.10;;;4.50;;
1613;SDS011;800;48.824;9.346;2023-11-22T14:11:45;5.20;;;4.23;;
1613;SDS011;800;48.824;9.346;2023-11-22T14:14:11;4.33;;;3.93;;
1613;SDS011;800;48.824;9.346;2023-11-22T14:16:36;6.27;;;5.67;;
1613;SDS011;800;48.824;9.346;2023-11-22T14:19:03;4.70;;;4.23;;
1613;SDS011;800;48.824;9.346;2023-11-22T14:21:30;6.23;;;4.80;;
1613;SDS011;800;48.824;9.346;2023-11-22T14:23:57;7.63;;;3.90;;
1613;SDS011;800;48.824;9.346;2023-11-22T14:26:23;5.83;;;4.47;;
1613;SDS011;800;48.824;9.346;2023-11-22T14:28:48;5.70;;;4.80;;
1613;SDS011;800;48.824;9.346;2023-11-22T14:31:14;4.40;;;4.00;;
1613;SDS011;800;48.824;9.346;2023-11-22T14:33:41;6.30;;;4.70;;
1613;SDS011;800;48.824;9.346;2023-11-22T14:36:06;4.93;;;4.43;;
1613;SDS011;800;48.824;9.346;2023-11-22T14:38:32;5.67;;;4.63;;
1613;SDS011;800;48.824;9.346;2023-11-22T14:40:58;5.03;;;4.43;;
1613;SDS011;800;48.824;9.346;2023-11-22T14:43:23;5.73;;;5.13;;
1613;SDS011;800;48.824;9.346;2023-11-22T14:45:49;5.63;;;4.80;;
1613;SDS011;800;48.824;9.346;2023-11-22T14:48:14;5.20;;;4.67;;
1613;SDS011;800;48.824;9.346;2023-11-22T14:50:40;5.70;;;5.10;;
1613;SDS011;800;48.824;9.346;2023-11-22T14:53:06;6.80;;;4.67;;
1613;SDS011;800;48.824;9.346;2023-11-22T14:55:35;5.00;;;4.30;;
1613;SDS011;800;48.824;9.346;2023-11-22T14:58:05;6.70;;;4.90;;
1613;SDS011;800;48.824;9.346;2023-11-22T15:00:31;6.23;;;4.33;;
1613;SDS011;800;48.824;9.346;2023-11-22T15:02:56;5.53;;;4.97;;
1613;SDS011;800;48.824;9.346;2023-11-22T15:05:22;6.57;;;4.77;;
1613;SDS011;800;48.824;9.346;2023-11-22T15:07:48;5.83;;;5.20;;
1613;SDS011;800;48.824;9.346;2023-11-22T15:10:19;5.70;;;5.10;;
1613;SDS011;800;48.824;9.346;2023-11-22T15:12:46;9.03;;;4.77;;
1613;SDS011;800;48.824;9.346;2023-11-22T15:15:13;7.60;;;5.67;;
1613;SDS011;800;48.824;9.346;2023-11-22T15:17:39;8.57;;;5.33;;
1613;SDS011;800;48.824;9.346;2023-11-22T15:20:05;5.17;;;4.67;;
1613;SDS011;800;48.824;9.346;2023-11-22T15:22:35;5.50;;;5.00;;
1613;SDS011;800;48.824;9.346;2023-11-22T15:25:01;7.23;;;5.20;;
1613;SDS011;800;48.824;9.346;2023-11-22T15:27:27;9.07;;;5.77;;
1613;SDS011;800;48.824;9.346;2023-11-22T15:29:53;7.63;;;4.70;;
1613;SDS011;800;48.824;9.346;2023-11-22T15:32:18;5.30;;;4.80;;
1613;SDS011;800;48.824;9.346;2023-11-22T15:34:44;5.60;;;5.03;;